sensor_id;sensor_type;location;lat;lon;timestamp;temperature;humidity
32107;DHT22;18622;51.998;10.440;2023-09-07T03:30:30;14.60;99.90
32107;DHT22;18622;51.998;10.440;2023-09-07T03:32:58;14.60;99.90
32107;DHT22;18622;51.998;10.440;2023-09-07T03:35:25;14.60;99.90
32107;DHT22;18622;51.998;10.440;2023-09-07T03:37:54;14.60;99.90
32107;DHT22;18622;51.998;10.440;2023-09-07T03:40:21;14.50;99.90
32107;DHT22;18622;51.998;10.440;2023-09-07T03:42:50;14.60;99.90
32107;DHT22;18622;51.998;10.440;2023-09-07T03:45:17;14.50;99.90
32107;DHT22;18622;51.998;10.440;2023-09-07T03:47:45;14.50;99.90
32107;DHT22;18622;51.998;10.440;2023-09-07T03:50:13;14.60;99.90
32107;DHT22;18622;51.998;10.440;2023-09-07T03:52:41;14.50;99.90
32107;DHT22;18622;51.998;10.440;2023-09-07T03:55:09;14.50;99.90
32107;DHT22;18622;51.998;10.440;2023-09-07T03:57:37;14.40;99.90
32107;DHT22;18622;51.998;10.440;2023-09-07T04:00:06;14.50;99.90
32107;DHT22;18622;51.998;10.440;2023-09-07T04:02:35;14.50;99.90
32107;DHT22;18622;51.998;10.440;2023-09-07T04:05:03;14.50;99.90
32107;DHT22;18622;51.998;10.440;2023-09-07T04:07:32;14.40;99.90
32107;DHT22;18622;51.998;10.440;2023-09-07T04:10:00;14.40;99.90
32107;DHT22;18622;51.998;10.440;2023-09-07T04:12:28;14.40;99.90
32107;DHT22;18622;51.998;10.440;2023-09-07T04:14:55;14.40;99.90
32107;DHT22;18622;51.998;10.440;2023-09-07T04:17:23;14.40;99.90
32107;DHT22;18622;51.998;10.440;2023-09-07T04:19:51;14.40;99.90
32107;DHT22;18622;51.998;10.440;2023-09-07T04:22:19;14.40;99.90
32107;DHT22;18622;51.998;10.440;2023-09-07T04:24:49;14.30;99.90
32107;DHT22;18622;51.998;10.440;2023-09-07T04:27:17;14.30;99.90
32107;DHT22;18622;51.998;10.440;2023-09-07T04:29:45;14.30;99.90
32107;DHT22;18622;51.998;10.440;2023-09-07T04:32:13;14.20;99.90
32107;DHT22;18622;51.998;10.440;2023-09-07T04:34:40;14.20;99.90
32107;DHT22;18622;51.998;10.440;2023-09-07T04:37:08;14.20;99.90
32107;DHT22;18622;51.998;10.440;2023-09-07T04:39:36;14.20;99.90
32107;DHT22;18622;51.998;10.440;2023-09-07T04:42:04;14.20;99.90
32107;DHT22;18622;51.998;10.440;2023-09-07T04:44:32;14.20;99.90
32107;DHT22;18622;51.998;10.440;2023-09-07T04:47:00;14.20;99.90
32107;DHT22;18622;51.998;10.440;2023-09-07T04:49:28;14.20;99.90
32107;DHT22;18622;51.998;10.440;2023-09-07T04:51:56;14.20;99.90
32107;DHT22;18622;51.998;10.440;2023-09-07T04:54:24;14.20;99.90
32107;DHT22;18622;51.998;10.440;2023-09-07T04:56:52;14.30;99.90
32107;DHT22;18622;51.998;10.440;2023-09-07T04:59:19;14.30;99.90
32107;DHT22;18622;51.998;10.440;2023-09-07T05:01:47;14.30;99.90
32107;DHT22;18622;51.998;10.440;2023-09-07T05:04:15;14.30;99.90
32107;DHT22;18622;51.998;10.440;2023-09-07T05:06:43;14.40;99.90
32107;DHT22;18622;51.998;10.440;2023-09-07T05:09:11;14.40;99.90
32107;DHT22;18622;51.998;10.440;2023-09-07T05:11:39;14.40;99.90
32107;DHT22;18622;51.998;10.440;2023-09-07T05:14:06;14.50;99.90
32107;DHT22;18622;51.998;10.440;2023-09-07T05:16:34;14.50;99.90
32107;DHT22;18622;51.998;10.440;2023-09-07T05:19:02;14.50;99.90
32107;DHT22;18622;51.998;10.440;2023-09-07T05:21:30;14.50;99.90
32107;DHT22;18622;51.998;10.440;2023-09-07T05:23:58;14.60;99.90
32107;DHT22;18622;51.998;10.440;2023-09-07T05:26:26;14.60;99.90
32107;DHT22;18622;51.998;10.440;2023-09-07T05:28:54;14.70;99.90
32107;DHT22;18622;51.998;10.440;2023-09-07T05:31:22;14.70;99.90
32107;DHT22;18622;51.998;10.440;2023-09-07T05:33:50;14.80;99.90
32107;DHT22;18622;51.998;10.440;2023-09-07T05:36:18;14.80;99.90
32107;DHT22;18622;51.998;10.440;2023-09-07T05:38:46;14.90;99.90
32107;DHT22;18622;51.998;10.440;2023-09-07T05:41:14;14.90;99.90
32107;DHT22;18622;51.998;10.440;2023-09-07T05:43:42;15.00;99.90
32107;DHT22;18622;51.998;10.440;2023-09-07T05:46:09;15.00;99.90
32107;DHT22;18622;51.998;10.440;2023-09-07T05:48:37;15.10;99.90
32107;DHT22;18622;51.998;10.440;2023-09-07T05:51:05;15.10;99.90
32107;DHT22;18622;51.998;10.440;2023-09-07T05:53:33;15.10;99.90
32107;DHT22;18622;51.998;10.440;2023-09-07T05:56:01;15.20;99.90
32107;DHT22;18622;51.998;10.440;2023-09-07T05:58:28;15.20;99.90
32107;DHT22;18622;51.998;10.440;2023-09-07T06:00:56;15.30;99.90
32107;DHT22;18622;51.998;10.440;2023-09-07T06:03:24;15.30;99.90
32107;DHT22;18622;51.998;10.440;2023-09-07T06:05:52;15.40;99.90
32107;DHT22;18622;51.998;10.440;2023-09-07T06:08:20;15.40;99.90
32107;DHT22;18622;51.998;10.440;2023-09-07T06:10:48;15.60;99.90
32107;DHT22;18622;51.998;10.440;2023-09-07T06:13:16;15.60;99.90
32107;DHT22;18622;51.998;10.440;2023-09-07T06:15:44;15.70;99.90
32107;DHT22;18622;51.998;10.440;2023-09-07T06:18:11;15.90;99.90
32107;DHT22;18622;51.998;10.440;2023-09-07T06:20:39;16.00;99.90
32107;DHT22;18622;51.998;10.440;2023-09-07T06:23:07;16.10;99.90
32107;DHT22;18622;51.998;10.440;2023-09-07T06:25:35;16.30;99.90
32107;DHT22;18622;51.998;10.440;2023-09-07T06:28:03;16.40;99.90
32107;DHT22;18622;51.998;10.440;2023-09-07T06:30:31;16.60;99.90
32107;DHT22;18622;51.998;10.440;2023-09-07T06:32:59;16.70;99.90
32107;DHT22;18622;51.998;10.440;2023-09-07T06:35:36;16.80;99.90
32107;DHT22;18622;51.998;10.440;2023-09-07T06:38:04;17.00;99.90
32107;DHT22;18622;51.998;10.440;2023-09-07T06:40:32;17.10;99.90
32107;DHT22;18622;51.998;10.440;2023-09-07T06:43:00;17.20;99.90
32107;DHT22;18622;51.998;10.440;2023-09-07T06:45:29;17.40;99.90
32107;DHT22;18622;51.998;10.440;2023-09-07T06:47:57;17.50;99.90
32107;DHT22;18622;51.998;10.440;2023-09-07T06:50:25;17.70;99.90
32107;DHT22;18622;51.998;10.440;2023-09-07T06:52:52;17.80;99.90
32107;DHT22;18622;51.998;10.440;2023-09-07T06:55:20;17.90;99.90
32107;DHT22;18622;51.998;10.440;2023-09-07T06:57:48;18.10;99.90
32107;DHT22;18622;51.998;10.440;2023-09-07T07:00:16;18.10;99.90
32107;DHT22;18622;51.998;10.440;2023-09-07T07:02:44;18.20;99.90
32107;DHT22;18622;51.998;10.440;2023-09-07T07:05:12;18.40;99.90
32107;DHT22;18622;51.998;10.440;2023-09-07T07:07:39;18.50;99.90
32107;DHT22;18622;51.998;10.440;2023-09-07T07:10:07;18.70;99.90
32107;DHT22;18622;51.998;10.440;2023-09-07T07:12:35;18.80;99.90
32107;DHT22;18622;51.998;10.440;2023-09-07T07:15:05;18.90;99.90
32107;DHT22;18622;51.998;10.440;2023-09-07T07:17:33;19.10;99.90
32107;DHT22;18622;51.998;10.440;2023-09-07T07:20:02;19.20;99.90
32107;DHT22;18622;51.998;10.440;2023-09-07T07:22:30;19.30;99.90
32107;DHT22;18622;51.998;10.440;2023-09-07T07:24:59;19.40;99.90
32107;DHT22;18622;51.998;10.440;2023-09-07T07:27:28;19.50;99.90
32107;DHT22;18622;51.998;10.440;2023-09-07T07:29:57;19.50;99.90
32107;DHT22;18622;51.998;10.440;2023-09-07T07:32:25;19.70;99.90
32107;DHT22;18622;51.998;10.440;2023-09-07T07:34:52;19.70;99.90
32107;DHT22;18622;51.998;10.440;2023-09-07T07:37:20;19.90;99.90
32107;DHT22;18622;51.998;10.440;2023-09-07T07:39:48;20.00;99.90
32107;DHT22;18622;51.998;10.440;2023-09-07T07:42:16;20.10;99.90
32107;DHT22;18622;51.998;10.440;2023-09-07T07:44:45;20.20;99.90
32107;DHT22;18622;51.998;10.440;2023-09-07T07:47:13;20.40;99.90
32107;DHT22;18622;51.998;10.440;2023-09-07T07:49:41;20.50;99.90
32107;DHT22;18622;51.998;10.440;2023-09-07T07:52:08;20.60;99.90
32107;DHT22;18622;51.998;10.440;2023-09-07T07:54:36;20.70;99.90
32107;DHT22;18622;51.998;10.440;2023-09-07T07:57:04;20.80;99.90
32107;DHT22;18622;51.998;10.440;2023-09-07T07:59:34;20.90;99.90
32107;DHT22;18622;51.998;10.440;2023-09-07T08:02:01;21.10;99.90
32107;DHT22;18622;51.998;10.440;2023-09-07T08:04:29;21.20;99.90
32107;DHT22;18622;51.998;10.440;2023-09-07T08:06:59;21.40;99.90
32107;DHT22;18622;51.998;10.440;2023-09-07T08:09:28;21.40;99.90
32107;DHT22;18622;51.998;10.440;2023-09-07T08:11:56;21.50;99.90
32107;DHT22;18622;51.998;10.440;2023-09-07T08:14:25;21.70;99.90
32107;DHT22;18622;51.998;10.440;2023-09-07T08:16:54;21.90;99.90
32107;DHT22;18622;51.998;10.440;2023-09-07T08:19:22;22.00;99.90
32107;DHT22;18622;51.998;10.440;2023-09-07T08:21:50;22.20;99.90
32107;DHT22;18622;51.998;10.440;2023-09-07T08:24:18;22.40;99.90
32107;DHT22;18622;51.998;10.440;2023-09-07T08:26:46;22.50;99.90
32107;DHT22;18622;51.998;10.440;2023-09-07T08:29:15;22.70;99.90
32107;DHT22;18622;51.998;10.440;2023-09-07T08:31:43;22.80;99.90
32107;DHT22;18622;51.998;10.440;2023-09-07T08:34:12;23.00;99.90
32107;DHT22;18622;51.998;10.440;2023-09-07T08:36:40;23.10;99.90
32107;DHT22;18622;51.998;10.440;2023-09-07T08:39:07;23.30;99.90
32107;DHT22;18622;51.998;10.440;2023-09-07T08:41:38;23.40;99.90
32107;DHT22;18622;51.998;10.440;2023-09-07T08:44:11;23.60;99.90
32107;DHT22;18622;51.998;10.440;2023-09-07T08:46:41;23.70;99.90
32107;DHT22;18622;51.998;10.440;2023-09-07T08:49:12;23.80;99.90
32107;DHT22;18622;51.998;10.440;2023-09-07T08:51:40;24.00;99.90
32107;DHT22;18622;51.998;10.440;2023-09-07T08:54:08;24.10;99.90
32107;DHT22;18622;51.998;10.440;2023-09-07T08:56:37;24.20;99.90
32107;DHT22;18622;51.998;10.440;2023-09-07T08:59:05;24.40;99.90
32107;DHT22;18622;51.998;10.440;2023-09-07T09:01:33;24.50;99.70
32107;DHT22;18622;51.998;10.440;2023-09-07T09:04:00;24.70;99.60
32107;DHT22;18622;51.998;10.440;2023-09-07T09:06:28;24.80;98.90
32107;DHT22;18622;51.998;10.440;2023-09-07T09:08:57;25.00;98.60
32107;DHT22;18622;51.998;10.440;2023-09-07T09:11:25;25.20;98.10
32107;DHT22;18622;51.998;10.440;2023-09-07T09:13:54;25.30;97.40
32107;DHT22;18622;51.998;10.440;2023-09-07T09:16:22;25.60;97.20
32107;DHT22;18622;51.998;10.440;2023-09-07T09:18:51;25.90;96.60
32107;DHT22;18622;51.998;10.440;2023-09-07T09:21:21;26.40;95.80
32107;DHT22;18622;51.998;10.440;2023-09-07T09:23:52;26.70;95.10
32107;DHT22;18622;51.998;10.440;2023-09-07T09:26:20;27.00;94.70
32107;DHT22;18622;51.998;10.440;2023-09-07T09:28:47;27.20;94.10
32107;DHT22;18622;51.998;10.440;2023-09-07T09:31:17;27.40;94.30
32107;DHT22;18622;51.998;10.440;2023-09-07T09:33:49;27.60;94.00
32107;DHT22;18622;51.998;10.440;2023-09-07T09:36:21;27.80;92.70
32107;DHT22;18622;51.998;10.440;2023-09-07T09:38:50;28.10;92.30
32107;DHT22;18622;51.998;10.440;2023-09-07T09:41:20;28.40;91.60
32107;DHT22;18622;51.998;10.440;2023-09-07T09:43:50;28.90;90.30
32107;DHT22;18622;51.998;10.440;2023-09-07T09:46:20;29.80;90.00
32107;DHT22;18622;51.998;10.440;2023-09-07T09:48:50;30.60;86.70
32107;DHT22;18622;51.998;10.440;2023-09-07T09:51:19;31.60;84.10
32107;DHT22;18622;51.998;10.440;2023-09-07T09:53:47;32.50;79.40
32107;DHT22;18622;51.998;10.440;2023-09-07T09:56:16;33.20;73.80
32107;DHT22;18622;51.998;10.440;2023-09-07T09:58:44;33.80;70.00
32107;DHT22;18622;51.998;10.440;2023-09-07T10:01:12;34.40;67.40
32107;DHT22;18622;51.998;10.440;2023-09-07T10:03:46;35.00;65.40
32107;DHT22;18622;51.998;10.440;2023-09-07T10:06:25;35.40;62.30
32107;DHT22;18622;51.998;10.440;2023-09-07T10:08:58;35.80;59.80
32107;DHT22;18622;51.998;10.440;2023-09-07T10:11:30;36.20;58.90
32107;DHT22;18622;51.998;10.440;2023-09-07T10:14:01;36.60;58.10
32107;DHT22;18622;51.998;10.440;2023-09-07T10:16:49;37.00;56.50
32107;DHT22;18622;51.998;10.440;2023-09-07T10:19:23;37.40;54.50
32107;DHT22;18622;51.998;10.440;2023-09-07T10:21:53;37.80;53.20
32107;DHT22;18622;51.998;10.440;2023-09-07T10:24:26;38.20;51.50
32107;DHT22;18622;51.998;10.440;2023-09-07T10:27:01;38.50;51.50
32107;DHT22;18622;51.998;10.440;2023-09-07T10:29:39;38.90;49.70
32107;DHT22;18622;51.998;10.440;2023-09-07T10:32:04;39.20;49.00
32107;DHT22;18622;51.998;10.440;2023-09-07T10:34:36;39.60;48.00
32107;DHT22;18622;51.998;10.440;2023-09-07T10:37:06;39.80;46.90
32107;DHT22;18622;51.998;10.440;2023-09-07T10:39:35;39.90;46.90
32107;DHT22;18622;51.998;10.440;2023-09-07T10:42:05;40.10;46.30
32107;DHT22;18622;51.998;10.440;2023-09-07T10:44:33;40.30;46.10
32107;DHT22;18622;51.998;10.440;2023-09-07T10:47:00;40.50;45.10
32107;DHT22;18622;51.998;10.440;2023-09-07T10:49:29;40.60;46.00
32107;DHT22;18622;51.998;10.440;2023-09-07T10:51:57;40.80;44.20
32107;DHT22;18622;51.998;10.440;2023-09-07T10:54:25;40.80;44.00
32107;DHT22;18622;51.998;10.440;2023-09-07T10:56:53;41.00;44.40
32107;DHT22;18622;51.998;10.440;2023-09-07T10:59:22;41.20;43.20
32107;DHT22;18622;51.998;10.440;2023-09-07T11:01:50;41.50;42.70
32107;DHT22;18622;51.998;10.440;2023-09-07T11:04:19;41.70;41.60
32107;DHT22;18622;51.998;10.440;2023-09-07T11:06:47;41.80;42.10
32107;DHT22;18622;51.998;10.440;2023-09-07T11:09:16;41.80;42.00
32107;DHT22;18622;51.998;10.440;2023-09-07T11:11:47;42.10;41.50
32107;DHT22;18622;51.998;10.440;2023-09-07T11:14:14;42.10;41.10
32107;DHT22;18622;51.998;10.440;2023-09-07T11:16:42;42.10;41.60
32107;DHT22;18622;51.998;10.440;2023-09-07T11:19:10;42.30;41.60
32107;DHT22;18622;51.998;10.440;2023-09-07T11:21:38;42.70;40.30
32107;DHT22;18622;51.998;10.440;2023-09-07T11:24:08;42.90;40.00
32107;DHT22;18622;51.998;10.440;2023-09-07T11:26:46;43.00;40.60
32107;DHT22;18622;51.998;10.440;2023-09-07T11:29:18;43.10;40.20
32107;DHT22;18622;51.998;10.440;2023-09-07T11:31:43;43.30;39.70
32107;DHT22;18622;51.998;10.440;2023-09-07T11:34:12;43.70;39.70
32107;DHT22;18622;51.998;10.440;2023-09-07T11:36:41;44.00;40.20
32107;DHT22;18622;51.998;10.440;2023-09-07T11:39:09;44.20;39.50
32107;DHT22;18622;51.998;10.440;2023-09-07T11:41:42;44.30;38.30
32107;DHT22;18622;51.998;10.440;2023-09-07T11:44:09;44.30;38.70
32107;DHT22;18622;51.998;10.440;2023-09-07T11:46:38;44.40;38.60
32107;DHT22;18622;51.998;10.440;2023-09-07T11:49:05;44.50;38.30
32107;DHT22;18622;51.998;10.440;2023-09-07T11:51:35;44.80;38.00
32107;DHT22;18622;51.998;10.440;2023-09-07T11:54:03;44.90;37.10
32107;DHT22;18622;51.998;10.440;2023-09-07T11:56:30;44.90;37.90
32107;DHT22;18622;51.998;10.440;2023-09-07T11:58:58;44.90;37.00
32107;DHT22;18622;51.998;10.440;2023-09-07T12:01:25;45.10;37.30
32107;DHT22;18622;51.998;10.440;2023-09-07T12:03:54;45.00;36.80
32107;DHT22;18622;51.998;10.440;2023-09-07T12:06:21;44.90;37.50
32107;DHT22;18622;51.998;10.440;2023-09-07T12:09:04;44.90;37.10
32107;DHT22;18622;51.998;10.440;2023-09-07T12:11:33;45.00;36.90
32107;DHT22;18622;51.998;10.440;2023-09-07T12:14:01;45.30;36.50
32107;DHT22;18622;51.998;10.440;2023-09-07T12:16:30;45.30;36.10
32107;DHT22;18622;51.998;10.440;2023-09-07T12:18:57;45.40;36.40
32107;DHT22;18622;51.998;10.440;2023-09-07T12:21:25;45.50;36.40
32107;DHT22;18622;51.998;10.440;2023-09-07T12:23:53;45.50;36.30
32107;DHT22;18622;51.998;10.440;2023-09-07T12:26:20;45.50;36.50
32107;DHT22;18622;51.998;10.440;2023-09-07T12:28:48;45.50;36.40
32107;DHT22;18622;51.998;10.440;2023-09-07T12:31:16;45.60;36.50
32107;DHT22;18622;51.998;10.440;2023-09-07T12:33:55;45.70;36.00
32107;DHT22;18622;51.998;10.440;2023-09-07T12:36:23;46.00;35.60
32107;DHT22;18622;51.998;10.440;2023-09-07T12:38:51;46.10;35.70
32107;DHT22;18622;51.998;10.440;2023-09-07T12:41:18;46.00;35.20
32107;DHT22;18622;51.998;10.440;2023-09-07T12:43:47;45.80;35.60
32107;DHT22;18622;51.998;10.440;2023-09-07T12:46:15;45.70;35.70
32107;DHT22;18622;51.998;10.440;2023-09-07T12:48:43;45.70;35.60
32107;DHT22;18622;51.998;10.440;2023-09-07T12:51:10;45.70;36.20
32107;DHT22;18622;51.998;10.440;2023-09-07T12:53:39;45.90;35.90
32107;DHT22;18622;51.998;10.440;2023-09-07T12:56:06;46.20;35.60
32107;DHT22;18622;51.998;10.440;2023-09-07T12:58:34;46.50;35.10
32107;DHT22;18622;51.998;10.440;2023-09-07T13:01:02;46.60;34.40
32107;DHT22;18622;51.998;10.440;2023-09-07T13:03:30;46.30;34.30
32107;DHT22;18622;51.998;10.440;2023-09-07T13:05:58;46.10;34.60
32107;DHT22;18622;51.998;10.440;2023-09-07T13:08:26;45.90;34.60
32107;DHT22;18622;51.998;10.440;2023-09-07T13:10:56;45.80;36.00
32107;DHT22;18622;51.998;10.440;2023-09-07T13:13:24;45.80;35.10
32107;DHT22;18622;51.998;10.440;2023-09-07T13:15:55;45.70;35.10
32107;DHT22;18622;51.998;10.440;2023-09-07T13:18:22;45.70;34.80
32107;DHT22;18622;51.998;10.440;2023-09-07T13:20:49;45.60;34.90
32107;DHT22;18622;51.998;10.440;2023-09-07T13:23:18;45.40;35.20
32107;DHT22;18622;51.998;10.440;2023-09-07T13:25:46;45.50;35.10
32107;DHT22;18622;51.998;10.440;2023-09-07T13:28:13;45.60;35.20
32107;DHT22;18622;51.998;10.440;2023-09-07T13:30:41;45.60;34.90
32107;DHT22;18622;51.998;10.440;2023-09-07T13:33:08;45.40;35.40
32107;DHT22;18622;51.998;10.440;2023-09-07T13:35:36;45.40;35.20
32107;DHT22;18622;51.998;10.440;2023-09-07T13:38:03;45.60;34.90
32107;DHT22;18622;51.998;10.440;2023-09-07T13:40:31;45.60;35.10
32107;DHT22;18622;51.998;10.440;2023-09-07T13:42:59;45.60;35.00
32107;DHT22;18622;51.998;10.440;2023-09-07T13:45:27;45.60;34.80
32107;DHT22;18622;51.998;10.440;2023-09-07T13:47:57;45.50;34.80
32107;DHT22;18622;51.998;10.440;2023-09-07T13:50:24;45.30;34.70
32107;DHT22;18622;51.998;10.440;2023-09-07T13:52:52;45.10;34.90
32107;DHT22;18622;51.998;10.440;2023-09-07T13:55:19;45.00;34.90
32107;DHT22;18622;51.998;10.440;2023-09-07T13:57:47;45.00;34.70
32107;DHT22;18622;51.998;10.440;2023-09-07T14:00:15;44.90;34.90
32107;DHT22;18622;51.998;10.440;2023-09-07T14:02:43;45.20;35.00
32107;DHT22;18622;51.998;10.440;2023-09-07T14:05:10;45.20;34.90
32107;DHT22;18622;51.998;10.440;2023-09-07T14:07:38;45.10;34.60
32107;DHT22;18622;51.998;10.440;2023-09-07T14:10:06;44.80;34.40
32107;DHT22;18622;51.998;10.440;2023-09-07T14:12:33;44.70;35.00
32107;DHT22;18622;51.998;10.440;2023-09-07T14:15:01;44.50;35.00
32107;DHT22;18622;51.998;10.440;2023-09-07T14:17:29;44.40;34.70
32107;DHT22;18622;51.998;10.440;2023-09-07T14:19:56;44.10;35.70
32107;DHT22;18622;51.998;10.440;2023-09-07T14:22:24;43.90;35.00
32107;DHT22;18622;51.998;10.440;2023-09-07T14:24:51;43.90;35.30
32107;DHT22;18622;51.998;10.440;2023-09-07T14:27:19;43.90;35.80
32107;DHT22;18622;51.998;10.440;2023-09-07T14:29:46;43.90;35.70
32107;DHT22;18622;51.998;10.440;2023-09-07T14:32:14;44.00;36.00
32107;DHT22;18622;51.998;10.440;2023-09-07T14:34:41;44.00;35.80
32107;DHT22;18622;51.998;10.440;2023-09-07T14:37:09;43.90;36.10
32107;DHT22;18622;51.998;10.440;2023-09-07T14:39:37;43.80;36.20
32107;DHT22;18622;51.998;10.440;2023-09-07T14:42:05;43.70;36.60
32107;DHT22;18622;51.998;10.440;2023-09-07T14:44:34;43.60;36.20
32107;DHT22;18622;51.998;10.440;2023-09-07T14:47:02;43.40;36.60
32107;DHT22;18622;51.998;10.440;2023-09-07T14:49:31;43.20;36.40
32107;DHT22;18622;51.998;10.440;2023-09-07T14:51:58;43.20;36.60
32107;DHT22;18622;51.998;10.440;2023-09-07T14:54:26;43.00;35.40
32107;DHT22;18622;51.998;10.440;2023-09-07T14:56:53;42.60;36.80
32107;DHT22;18622;51.998;10.440;2023-09-07T14:59:21;42.40;36.90
32107;DHT22;18622;51.998;10.440;2023-09-07T15:01:48;42.40;37.40
32107;DHT22;18622;51.998;10.440;2023-09-07T15:04:16;42.50;36.90
32107;DHT22;18622;51.998;10.440;2023-09-07T15:06:43;42.40;37.40
32107;DHT22;18622;51.998;10.440;2023-09-07T15:09:11;42.40;37.40
32107;DHT22;18622;51.998;10.440;2023-09-07T15:11:38;42.40;36.80
32107;DHT22;18622;51.998;10.440;2023-09-07T15:14:06;42.40;36.50
32107;DHT22;18622;51.998;10.440;2023-09-07T15:16:34;42.30;37.30
32107;DHT22;18622;51.998;10.440;2023-09-07T15:19:02;42.20;36.90
32107;DHT22;18622;51.998;10.440;2023-09-07T15:21:29;42.40;37.10
32107;DHT22;18622;51.998;10.440;2023-09-07T15:23:57;42.50;37.00
32107;DHT22;18622;51.998;10.440;2023-09-07T15:26:25;42.50;37.30
32107;DHT22;18622;51.998;10.440;2023-09-07T15:28:53;42.50;37.10
32107;DHT22;18622;51.998;10.440;2023-09-07T15:31:20;42.40;36.70
32107;DHT22;18622;51.998;10.440;2023-09-07T15:33:48;42.30;36.40
32107;DHT22;18622;51.998;10.440;2023-09-07T15:36:15;42.20;36.50
32107;DHT22;18622;51.998;10.440;2023-09-07T15:38:43;42.10;36.80
32107;DHT22;18622;51.998;10.440;2023-09-07T15:41:11;42.00;36.90
32107;DHT22;18622;51.998;10.440;2023-09-07T15:43:39;42.00;36.80
32107;DHT22;18622;51.998;10.440;2023-09-07T15:46:07;42.00;36.80
32107;DHT22;18622;51.998;10.440;2023-09-07T15:48:35;42.00;37.00
32107;DHT22;18622;51.998;10.440;2023-09-07T15:51:03;42.10;36.90
32107;DHT22;18622;51.998;10.440;2023-09-07T15:53:33;42.10;36.60
32107;DHT22;18622;51.998;10.440;2023-09-07T15:56:03;42.20;36.90
32107;DHT22;18622;51.998;10.440;2023-09-07T15:58:31;42.50;36.20
32107;DHT22;18622;51.998;10.440;2023-09-07T16:00:59;42.50;36.10
32107;DHT22;18622;51.998;10.440;2023-09-07T16:03:27;42.50;36.40
32107;DHT22;18622;51.998;10.440;2023-09-07T16:05:55;42.30;36.20
32107;DHT22;18622;51.998;10.440;2023-09-07T16:08:23;42.40;35.80
32107;DHT22;18622;51.998;10.440;2023-09-07T16:10:55;42.40;35.80
32107;DHT22;18622;51.998;10.440;2023-09-07T16:13:23;42.30;36.00
32107;DHT22;18622;51.998;10.440;2023-09-07T16:15:50;42.10;35.60
32107;DHT22;18622;51.998;10.440;2023-09-07T16:18:18;41.90;36.30
32107;DHT22;18622;51.998;10.440;2023-09-07T16:20:47;41.80;36.10
32107;DHT22;18622;51.998;10.440;2023-09-07T16:23:16;41.70;35.80
32107;DHT22;18622;51.998;10.440;2023-09-07T16:25:45;41.40;35.60
32107;DHT22;18622;51.998;10.440;2023-09-07T16:28:14;40.70;36.00
32107;DHT22;18622;51.998;10.440;2023-09-07T16:30:42;39.20;37.60
32107;DHT22;18622;51.998;10.440;2023-09-07T16:33:10;37.50;38.90
32107;DHT22;18622;51.998;10.440;2023-09-07T16:35:37;36.10;40.30
32107;DHT22;18622;51.998;10.440;2023-09-07T16:38:05;34.90;41.60
32107;DHT22;18622;51.998;10.440;2023-09-07T16:40:38;33.90;42.70
32107;DHT22;18622;51.998;10.440;2023-09-07T16:43:05;33.00;43.70
32107;DHT22;18622;51.998;10.440;2023-09-07T16:45:33;32.20;44.60
32107;DHT22;18622;51.998;10.440;2023-09-07T16:48:01;31.60;45.80
32107;DHT22;18622;51.998;10.440;2023-09-07T16:50:29;31.10;46.80
32107;DHT22;18622;51.998;10.440;2023-09-07T16:52:56;30.60;47.60
32107;DHT22;18622;51.998;10.440;2023-09-07T16:55:24;30.20;48.30
32107;DHT22;18622;51.998;10.440;2023-09-07T16:57:55;29.80;48.50
32107;DHT22;18622;51.998;10.440;2023-09-07T17:00:23;29.40;49.40
32107;DHT22;18622;51.998;10.440;2023-09-07T17:02:51;29.20;49.80
32107;DHT22;18622;51.998;10.440;2023-09-07T17:05:18;28.90;50.50
32107;DHT22;18622;51.998;10.440;2023-09-07T17:07:46;28.60;50.90
32107;DHT22;18622;51.998;10.440;2023-09-07T17:10:14;28.30;51.80
32107;DHT22;18622;51.998;10.440;2023-09-07T17:12:42;28.10;52.10
32107;DHT22;18622;51.998;10.440;2023-09-07T17:15:11;27.90;53.00
32107;DHT22;18622;51.998;10.440;2023-09-07T17:17:38;27.70;54.40
32107;DHT22;18622;51.998;10.440;2023-09-07T17:20:06;27.50;55.80
32107;DHT22;18622;51.998;10.440;2023-09-07T17:22:34;27.20;57.80
32107;DHT22;18622;51.998;10.440;2023-09-07T17:25:02;26.80;58.50
32107;DHT22;18622;51.998;10.440;2023-09-07T17:27:30;26.50;60.10
32107;DHT22;18622;51.998;10.440;2023-09-07T17:29:58;26.20;61.30
32107;DHT22;18622;51.998;10.440;2023-09-07T17:32:26;25.90;62.40
32107;DHT22;18622;51.998;10.440;2023-09-07T17:34:53;25.60;63.30
32107;DHT22;18622;51.998;10.440;2023-09-07T17:37:21;25.40;64.60
32107;DHT22;18622;51.998;10.440;2023-09-07T17:39:49;25.10;65.60
32107;DHT22;18622;51.998;10.440;2023-09-07T17:42:17;24.90;66.50
32107;DHT22;18622;51.998;10.440;2023-09-07T17:44:45;24.60;67.80
32107;DHT22;18622;51.998;10.440;2023-09-07T17:47:13;24.40;68.30
32107;DHT22;18622;51.998;10.440;2023-09-07T17:49:41;24.30;68.90
32107;DHT22;18622;51.998;10.440;2023-09-07T17:52:08;24.10;69.80
32107;DHT22;18622;51.998;10.440;2023-09-07T17:54:36;23.90;70.50
32107;DHT22;18622;51.998;10.440;2023-09-07T17:57:04;23.80;71.50
32107;DHT22;18622;51.998;10.440;2023-09-07T17:59:32;23.60;72.20
32107;DHT22;18622;51.998;10.440;2023-09-07T18:02:00;23.40;72.70
32107;DHT22;18622;51.998;10.440;2023-09-07T18:04:27;23.30;73.40
32107;DHT22;18622;51.998;10.440;2023-09-07T18:06:55;23.20;74.10
32107;DHT22;18622;51.998;10.440;2023-09-07T18:09:23;23.10;74.90
32107;DHT22;18622;51.998;10.440;2023-09-07T18:11:51;22.90;75.70
32107;DHT22;18622;51.998;10.440;2023-09-07T18:14:19;22.80;76.80
32107;DHT22;18622;51.998;10.440;2023-09-07T18:16:47;22.60;77.70
32107;DHT22;18622;51.998;10.440;2023-09-07T18:19:15;22.50;78.90
32107;DHT22;18622;51.998;10.440;2023-09-07T18:21:42;22.30;81.20
32107;DHT22;18622;51.998;10.440;2023-09-07T18:24:10;22.10;82.60
32107;DHT22;18622;51.998;10.440;2023-09-07T18:26:38;22.00;83.70
32107;DHT22;18622;51.998;10.440;2023-09-07T18:29:11;21.80;85.50
32107;DHT22;18622;51.998;10.440;2023-09-07T18:31:39;21.70;86.30
32107;DHT22;18622;51.998;10.440;2023-09-07T18:34:07;21.60;88.60
32107;DHT22;18622;51.998;10.440;2023-09-07T18:36:35;21.50;89.40
32107;DHT22;18622;51.998;10.440;2023-09-07T18:39:03;21.40;90.30
32107;DHT22;18622;51.998;10.440;2023-09-07T18:41:31;21.40;90.70
32107;DHT22;18622;51.998;10.440;2023-09-07T18:43:59;21.30;91.40
32107;DHT22;18622;51.998;10.440;2023-09-07T18:46:27;21.20;92.00
32107;DHT22;18622;51.998;10.440;2023-09-07T18:48:54;21.20;92.70
32107;DHT22;18622;51.998;10.440;2023-09-07T18:51:22;21.10;93.40